sensor_id;sensor_type;location;lat;lon;timestamp;P1;durP1;ratioP1;P2;durP2;ratioP2
49590;SDS011;35496;-21.974;-46.800;2023-04-03T00:02:08;8.90;;;3.58;;
49590;SDS011;35496;-21.974;-46.800;2023-04-03T00:04:34;6.15;;;3.03;;
49590;SDS011;35496;-21.974;-46.800;2023-04-03T00:07:00;12.48;;;3.67;;
49590;SDS011;35496;-21.974;-46.800;2023-04-03T00:09:26;28.83;;;7.03;;
49590;SDS011;35496;-21.974;-46.800;2023-04-03T00:11:52;9.68;;;3.85;;
49590;SDS011;35496;-21.974;-46.800;2023-04-03T00:14:18;7.68;;;2.78;;
49590;SDS011;35496;-21.974;-46.800;2023-04-03T00:16:44;10.85;;;3.90;;
49590;SDS011;35496;-21.974;-46.800;2023-04-03T00:19:11;9.20;;;3.28;;
49590;SDS011;35496;-21.974;-46.800;2023-04-03T00:21:40;7.45;;;3.78;;
49590;SDS011;35496;-21.974;-46.800;2023-04-03T00:24:06;8.68;;;4.07;;
49590;SDS011;35496;-21.974;-46.800;2023-04-03T00:26:32;6.72;;;4.15;;
49590;SDS011;35496;-21.974;-46.800;2023-04-03T00:28:58;7.68;;;3.72;;
49590;SDS011;35496;-21.974;-46.800;2023-04-03T00:31:24;15.73;;;4.55;;
49590;SDS011;35496;-21.974;-46.800;2023-04-03T00:33:50;8.57;;;3.70;;
49590;SDS011;35496;-21.974;-46.800;2023-04-03T00:36:16;6.88;;;3.42;;
49590;SDS011;35496;-21.974;-46.800;2023-04-03T00:38:42;3.70;;;3.13;;
49590;SDS011;35496;-21.974;-46.800;2023-04-03T00:41:08;5.47;;;3.30;;
49590;SDS011;35496;-21.974;-46.800;2023-04-03T00:43:35;7.03;;;4.25;;
49590;SDS011;35496;-21.974;-46.800;2023-04-03T00:46:01;7.70;;;2.92;;
49590;SDS011;35496;-21.974;-46.800;2023-04-03T00:50:56;12.85;;;4.18;;
49590;SDS011;35496;-21.974;-46.800;2023-04-03T00:53:24;4.55;;;3.13;;
49590;SDS011;35496;-21.974;-46.800;2023-04-03T00:55:51;6.90;;;3.95;;
49590;SDS011;35496;-21.974;-46.800;2023-04-03T00:58:19;10.38;;;3.88;;
49590;SDS011;35496;-21.974;-46.800;2023-04-03T01:00:47;10.07;;;3.47;;
49590;SDS011;35496;-21.974;-46.800;2023-04-03T01:03:14;13.18;;;3.50;;
49590;SDS011;35496;-21.974;-46.800;2023-04-03T01:05:40;11.00;;;3.75;;
49590;SDS011;35496;-21.974;-46.800;2023-04-03T01:08:06;7.18;;;3.03;;
49590;SDS011;35496;-21.974;-46.800;2023-04-03T01:10:32;8.50;;;3.55;;
49590;SDS011;35496;-21.974;-46.800;2023-04-03T01:12:58;11.20;;;3.95;;
49590;SDS011;35496;-21.974;-46.800;2023-04-03T01:15:27;7.93;;;3.20;;
49590;SDS011;35496;-21.974;-46.800;2023-04-03T01:17:56;3.97;;;2.78;;
49590;SDS011;35496;-21.974;-46.800;2023-04-03T01:25:21;8.90;;;3.15;;
49590;SDS011;35496;-21.974;-46.800;2023-04-03T01:27:47;7.07;;;3.90;;
49590;SDS011;35496;-21.974;-46.800;2023-04-03T01:30:14;8.35;;;3.10;;
49590;SDS011;35496;-21.974;-46.800;2023-04-03T01:32:42;5.85;;;2.95;;
49590;SDS011;35496;-21.974;-46.800;2023-04-03T01:35:09;3.67;;;3.25;;
49590;SDS011;35496;-21.974;-46.800;2023-04-03T01:37:56;10.18;;;3.80;;
49590;SDS011;35496;-21.974;-46.800;2023-04-03T01:40:22;14.35;;;4.05;;
49590;SDS011;35496;-21.974;-46.800;2023-04-03T01:42:48;16.38;;;4.45;;
49590;SDS011;35496;-21.974;-46.800;2023-04-03T01:45:14;14.77;;;4.75;;
49590;SDS011;35496;-21.974;-46.800;2023-04-03T01:47:40;6.63;;;3.60;;
49590;SDS011;35496;-21.974;-46.800;2023-04-03T01:50:06;16.73;;;5.22;;
49590;SDS011;35496;-21.974;-46.800;2023-04-03T01:52:32;10.50;;;4.60;;
49590;SDS011;35496;-21.974;-46.800;2023-04-03T01:54:58;6.07;;;3.55;;
49590;SDS011;35496;-21.974;-46.800;2023-04-03T01:57:24;4.43;;;3.70;;
49590;SDS011;35496;-21.974;-46.800;2023-04-03T01:59:51;3.50;;;3.20;;
49590;SDS011;35496;-21.974;-46.800;2023-04-03T02:02:17;6.47;;;3.55;;
49590;SDS011;35496;-21.974;-46.800;2023-04-03T02:04:44;9.10;;;4.05;;
49590;SDS011;35496;-21.974;-46.800;2023-04-03T02:07:10;5.53;;;3.72;;
49590;SDS011;35496;-21.974;-46.800;2023-04-03T02:09:36;5.03;;;2.50;;
49590;SDS011;35496;-21.974;-46.800;2023-04-03T02:12:02;3.65;;;2.58;;
49590;SDS011;35496;-21.974;-46.800;2023-04-03T02:14:28;3.35;;;2.92;;
49590;SDS011;35496;-21.974;-46.800;2023-04-03T02:16:54;7.55;;;3.60;;
49590;SDS011;35496;-21.974;-46.800;2023-04-03T02:19:20;5.75;;;3.03;;
49590;SDS011;35496;-21.974;-46.800;2023-04-03T02:21:46;9.43;;;3.42;;
49590;SDS011;35496;-21.974;-46.800;2023-04-03T02:24:12;5.18;;;2.83;;
49590;SDS011;35496;-21.974;-46.800;2023-04-03T02:26:38;10.38;;;3.13;;
49590;SDS011;35496;-21.974;-46.800;2023-04-03T02:29:05;12.45;;;3.90;;
49590;SDS011;35496;-21.974;-46.800;2023-04-03T02:31:31;9.35;;;3.35;;
49590;SDS011;35496;-21.974;-46.800;2023-04-03T02:33:57;9.18;;;3.97;;
49590;SDS011;35496;-21.974;-46.800;2023-04-03T02:36:23;8.90;;;4.55;;
49590;SDS011;35496;-21.974;-46.800;2023-04-03T02:38:49;9.20;;;3.45;;
49590;SDS011;35496;-21.974;-46.800;2023-04-03T02:41:15;3.55;;;3.20;;
49590;SDS011;35496;-21.974;-46.800;2023-04-03T02:43:41;10.75;;;4.63;;
49590;SDS011;35496;-21.974;-46.800;2023-04-03T02:46:07;5.05;;;3.75;;
49590;SDS011;35496;-21.974;-46.800;2023-04-03T02:48:33;4.47;;;2.90;;
49590;SDS011;35496;-21.974;-46.800;2023-04-03T02:50:59;5.10;;;2.97;;
49590;SDS011;35496;-21.974;-46.800;2023-04-03T02:53:26;6.07;;;3.47;;
49590;SDS011;35496;-21.974;-46.800;2023-04-03T02:55:52;5.15;;;3.25;;
49590;SDS011;35496;-21.974;-46.800;2023-04-03T02:58:18;3.63;;;2.88;;
49590;SDS011;35496;-21.974;-46.800;2023-04-03T03:00:44;4.15;;;3.47;;
49590;SDS011;35496;-21.974;-46.800;2023-04-03T03:03:10;8.10;;;3.90;;
49590;SDS011;35496;-21.974;-46.800;2023-04-03T03:05:36;8.90;;;3.75;;
49590;SDS011;35496;-21.974;-46.800;2023-04-03T03:08:02;13.65;;;4.18;;
49590;SDS011;35496;-21.974;-46.800;2023-04-03T03:10:28;6.55;;;4.00;;
49590;SDS011;35496;-21.974;-46.800;2023-04-03T03:12:54;5.00;;;3.25;;
49590;SDS011;35496;-21.974;-46.800;2023-04-03T03:15:20;7.80;;;3.20;;
49590;SDS011;35496;-21.974;-46.800;2023-04-03T03:17:46;12.70;;;3.17;;
49590;SDS011;35496;-21.974;-46.800;2023-04-03T03:20:12;12.80;;;4.72;;
49590;SDS011;35496;-21.974;-46.800;2023-04-03T03:22:41;5.10;;;4.03;;
49590;SDS011;35496;-21.974;-46.800;2023-04-03T03:25:08;7.50;;;2.95;;
49590;SDS011;35496;-21.974;-46.800;2023-04-03T03:27:34;6.47;;;2.90;;
49590;SDS011;35496;-21.974;-46.800;2023-04-03T03:30:00;4.80;;;1.80;;
49590;SDS011;35496;-21.974;-46.800;2023-04-03T03:32:26;6.32;;;3.58;;
49590;SDS011;35496;-21.974;-46.800;2023-04-03T03:34:52;11.93;;;3.60;;
49590;SDS011;35496;-21.974;-46.800;2023-04-03T03:37:18;10.55;;;3.92;;
49590;SDS011;35496;-21.974;-46.800;2023-04-03T03:39:44;8.73;;;4.03;;
49590;SDS011;35496;-21.974;-46.800;2023-04-03T03:42:10;8.60;;;5.20;;
49590;SDS011;35496;-21.974;-46.800;2023-04-03T03:44:36;9.23;;;4.95;;
49590;SDS011;35496;-21.974;-46.800;2023-04-03T03:47:02;12.38;;;5.45;;
49590;SDS011;35496;-21.974;-46.800;2023-04-03T03:49:28;11.73;;;5.18;;
49590;SDS011;35496;-21.974;-46.800;2023-04-03T03:51:55;4.55;;;3.88;;
49590;SDS011;35496;-21.974;-46.800;2023-04-03T03:54:21;7.65;;;3.80;;
49590;SDS011;35496;-21.974;-46.800;2023-04-03T03:56:47;8.13;;;4.57;;
49590;SDS011;35496;-21.974;-46.800;2023-04-03T03:59:13;7.53;;;4.00;;
49590;SDS011;35496;-21.974;-46.800;2023-04-03T04:01:39;7.68;;;5.22;;
49590;SDS011;35496;-21.974;-46.800;2023-04-03T04:04:05;9.30;;;4.45;;
49590;SDS011;35496;-21.974;-46.800;2023-04-03T04:06:31;11.65;;;4.82;;
49590;SDS011;35496;-21.974;-46.800;2023-04-03T04:08:57;10.85;;;3.88;;
49590;SDS011;35496;-21.974;-46.800;2023-04-03T04:11:23;9.07;;;5.13;;
49590;SDS011;35496;-21.974;-46.800;2023-04-03T04:13:49;10.68;;;4.57;;
49590;SDS011;35496;-21.974;-46.800;2023-04-03T04:16:15;8.20;;;4.40;;
49590;SDS011;35496;-21.974;-46.800;2023-04-03T04:18:41;11.38;;;5.57;;
49590;SDS011;35496;-21.974;-46.800;2023-04-03T04:21:07;6.05;;;3.92;;
49590;SDS011;35496;-21.974;-46.800;2023-04-03T04:23:33;16.15;;;5.13;;
49590;SDS011;35496;-21.974;-46.800;2023-04-03T04:25:59;9.45;;;5.40;;
49590;SDS011;35496;-21.974;-46.800;2023-04-03T04:28:25;18.23;;;10.57;;
49590;SDS011;35496;-21.974;-46.800;2023-04-03T04:30:51;22.02;;;11.77;;
49590;SDS011;35496;-21.974;-46.800;2023-04-03T04:33:17;30.08;;;12.10;;
49590;SDS011;35496;-21.974;-46.800;2023-04-03T04:35:43;17.20;;;7.80;;
49590;SDS011;35496;-21.974;-46.800;2023-04-03T04:38:09;13.75;;;5.70;;
49590;SDS011;35496;-21.974;-46.800;2023-04-03T04:40:35;11.73;;;5.40;;
49590;SDS011;35496;-21.974;-46.800;2023-04-03T04:43:03;14.63;;;6.55;;
49590;SDS011;35496;-21.974;-46.800;2023-04-03T04:45:29;11.15;;;5.00;;
49590;SDS011;35496;-21.974;-46.800;2023-04-03T04:47:55;6.00;;;4.00;;
49590;SDS011;35496;-21.974;-46.800;2023-04-03T04:50:21;6.78;;;3.47;;
49590;SDS011;35496;-21.974;-46.800;2023-04-03T04:52:47;5.55;;;3.70;;
49590;SDS011;35496;-21.974;-46.800;2023-04-03T04:55:13;7.50;;;5.68;;
49590;SDS011;35496;-21.974;-46.800;2023-04-03T04:57:39;25.45;;;12.50;;
49590;SDS011;35496;-21.974;-46.800;2023-04-03T05:00:06;28.33;;;12.82;;
49590;SDS011;35496;-21.974;-46.800;2023-04-03T05:02:32;29.10;;;12.75;;
49590;SDS011;35496;-21.974;-46.800;2023-04-03T05:04:58;29.63;;;14.80;;
49590;SDS011;35496;-21.974;-46.800;2023-04-03T05:07:24;26.52;;;11.27;;
49590;SDS011;35496;-21.974;-46.800;2023-04-03T05:09:50;19.08;;;10.18;;
49590;SDS011;35496;-21.974;-46.800;2023-04-03T05:12:16;15.45;;;7.45;;
49590;SDS011;35496;-21.974;-46.800;2023-04-03T05:14:42;13.43;;;6.25;;
49590;SDS011;35496;-21.974;-46.800;2023-04-03T05:17:08;13.07;;;6.13;;
49590;SDS011;35496;-21.974;-46.800;2023-04-03T05:19:34;10.45;;;5.13;;
49590;SDS011;35496;-21.974;-46.800;2023-04-03T05:22:00;14.60;;;6.40;;
49590;SDS011;35496;-21.974;-46.800;2023-04-03T05:24:26;10.25;;;5.38;;
49590;SDS011;35496;-21.974;-46.800;2023-04-03T05:26:52;7.30;;;4.28;;
49590;SDS011;35496;-21.974;-46.800;2023-04-03T05:29:18;7.40;;;4.88;;
49590;SDS011;35496;-21.974;-46.800;2023-04-03T05:31:44;6.50;;;4.65;;
49590;SDS011;35496;-21.974;-46.800;2023-04-03T05:34:10;10.68;;;5.97;;
49590;SDS011;35496;-21.974;-46.800;2023-04-03T05:36:36;6.93;;;5.95;;
49590;SDS011;35496;-21.974;-46.800;2023-04-03T05:39:02;9.00;;;5.10;;
49590;SDS011;35496;-21.974;-46.800;2023-04-03T05:41:29;8.05;;;5.60;;
49590;SDS011;35496;-21.974;-46.800;2023-04-03T05:43:55;7.63;;;4.85;;
49590;SDS011;35496;-21.974;-46.800;2023-04-03T05:46:21;14.40;;;6.13;;
49590;SDS011;35496;-21.974;-46.800;2023-04-03T05:48:47;7.28;;;5.18;;
49590;SDS011;35496;-21.974;-46.800;2023-04-03T05:51:15;7.30;;;5.43;;
49590;SDS011;35496;-21.974;-46.800;2023-04-03T05:53:41;20.50;;;7.07;;
49590;SDS011;35496;-21.974;-46.800;2023-04-03T05:56:08;9.35;;;4.75;;
49590;SDS011;35496;-21.974;-46.800;2023-04-03T05:58:34;10.82;;;6.25;;
49590;SDS011;35496;-21.974;-46.800;2023-04-03T06:01:00;6.28;;;4.97;;
49590;SDS011;35496;-21.974;-46.800;2023-04-03T06:03:26;8.65;;;5.03;;
49590;SDS011;35496;-21.974;-46.800;2023-04-03T06:05:52;9.30;;;6.30;;
49590;SDS011;35496;-21.974;-46.800;2023-04-03T06:08:19;6.65;;;5.88;;
49590;SDS011;35496;-21.974;-46.800;2023-04-03T06:10:45;11.50;;;6.50;;
49590;SDS011;35496;-21.974;-46.800;2023-04-03T06:13:11;11.73;;;6.32;;
49590;SDS011;35496;-21.974;-46.800;2023-04-03T06:15:38;11.75;;;7.15;;
49590;SDS011;35496;-21.974;-46.800;2023-04-03T06:18:05;9.68;;;5.97;;
49590;SDS011;35496;-21.974;-46.800;2023-04-03T06:20:32;14.63;;;6.88;;
49590;SDS011;35496;-21.974;-46.800;2023-04-03T06:22:58;8.85;;;5.65;;
49590;SDS011;35496;-21.974;-46.800;2023-04-03T06:25:24;7.38;;;6.35;;
49590;SDS011;35496;-21.974;-46.800;2023-04-03T06:27:50;16.45;;;6.70;;
49590;SDS011;35496;-21.974;-46.800;2023-04-03T06:30:16;10.18;;;6.25;;
49590;SDS011;35496;-21.974;-46.800;2023-04-03T06:32:42;11.27;;;6.47;;
49590;SDS011;35496;-21.974;-46.800;2023-04-03T06:35:08;11.05;;;5.80;;
49590;SDS011;35496;-21.974;-46.800;2023-04-03T06:37:34;12.05;;;5.95;;
49590;SDS011;35496;-21.974;-46.800;2023-04-03T06:40:01;9.98;;;7.05;;
49590;SDS011;35496;-21.974;-46.800;2023-04-03T06:42:28;8.10;;;5.85;;
49590;SDS011;35496;-21.974;-46.800;2023-04-03T06:44:54;9.32;;;5.20;;
49590;SDS011;35496;-21.974;-46.800;2023-04-03T06:47:20;9.65;;;5.10;;
49590;SDS011;35496;-21.974;-46.800;2023-04-03T06:49:46;8.18;;;4.38;;
49590;SDS011;35496;-21.974;-46.800;2023-04-03T06:52:12;6.30;;;5.25;;
49590;SDS011;35496;-21.974;-46.800;2023-04-03T06:54:39;11.70;;;5.88;;
49590;SDS011;35496;-21.974;-46.800;2023-04-03T06:57:05;8.10;;;4.95;;
49590;SDS011;35496;-21.974;-46.800;2023-04-03T06:59:31;9.65;;;6.22;;
49590;SDS011;35496;-21.974;-46.800;2023-04-03T07:01:57;14.27;;;5.10;;
49590;SDS011;35496;-21.974;-46.800;2023-04-03T07:04:25;7.25;;;4.53;;
49590;SDS011;35496;-21.974;-46.800;2023-04-03T07:06:51;7.63;;;5.50;;
49590;SDS011;35496;-21.974;-46.800;2023-04-03T07:09:17;10.45;;;6.20;;
49590;SDS011;35496;-21.974;-46.800;2023-04-03T07:11:44;12.60;;;5.30;;
49590;SDS011;35496;-21.974;-46.800;2023-04-03T07:14:10;9.35;;;5.28;;
49590;SDS011;35496;-21.974;-46.800;2023-04-03T07:16:36;9.70;;;5.47;;
49590;SDS011;35496;-21.974;-46.800;2023-04-03T07:19:02;9.40;;;5.78;;
49590;SDS011;35496;-21.974;-46.800;2023-04-03T07:21:28;16.23;;;5.82;;
49590;SDS011;35496;-21.974;-46.800;2023-04-03T07:23:55;8.13;;;5.35;;
49590;SDS011;35496;-21.974;-46.800;2023-04-03T07:26:21;6.95;;;4.47;;
49590;SDS011;35496;-21.974;-46.800;2023-04-03T07:28:48;15.57;;;6.68;;
49590;SDS011;35496;-21.974;-46.800;2023-04-03T07:31:15;9.38;;;5.28;;
49590;SDS011;35496;-21.974;-46.800;2023-04-03T07:33:42;7.45;;;5.22;;
49590;SDS011;35496;-21.974;-46.800;2023-04-03T07:36:09;8.55;;;5.15;;
49590;SDS011;35496;-21.974;-46.800;2023-04-03T07:38:35;10.10;;;5.63;;
49590;SDS011;35496;-21.974;-46.800;2023-04-03T07:41:02;11.55;;;6.20;;
49590;SDS011;35496;-21.974;-46.800;2023-04-03T07:43:28;15.63;;;6.20;;
49590;SDS011;35496;-21.974;-46.800;2023-04-03T07:45:54;8.82;;;6.60;;
49590;SDS011;35496;-21.974;-46.800;2023-04-03T07:48:21;16.65;;;6.53;;
49590;SDS011;35496;-21.974;-46.800;2023-04-03T07:50:47;11.75;;;7.13;;
49590;SDS011;35496;-21.974;-46.800;2023-04-03T07:53:14;10.32;;;6.90;;
49590;SDS011;35496;-21.974;-46.800;2023-04-03T07:55:40;10.50;;;5.38;;
49590;SDS011;35496;-21.974;-46.800;2023-04-03T07:58:11;10.73;;;6.65;;
49590;SDS011;35496;-21.974;-46.800;2023-04-03T08:00:38;11.15;;;6.25;;
49590;SDS011;35496;-21.974;-46.800;2023-04-03T08:03:04;11.18;;;7.40;;
49590;SDS011;35496;-21.974;-46.800;2023-04-03T08:05:31;25.83;;;11.15;;
49590;SDS011;35496;-21.974;-46.800;2023-04-03T08:07:57;40.83;;;21.40;;
49590;SDS011;35496;-21.974;-46.800;2023-04-03T08:10:23;42.03;;;22.27;;
49590;SDS011;35496;-21.974;-46.800;2023-04-03T08:12:49;60.47;;;33.95;;
49590;SDS011;35496;-21.974;-46.800;2023-04-03T08:15:16;30.25;;;18.73;;
49590;SDS011;35496;-21.974;-46.800;2023-04-03T08:17:42;23.48;;;12.55;;
49590;SDS011;35496;-21.974;-46.800;2023-04-03T08:20:09;15.85;;;10.27;;
49590;SDS011;35496;-21.974;-46.800;2023-04-03T08:22:35;13.23;;;7.80;;
49590;SDS011;35496;-21.974;-46.800;2023-04-03T08:25:01;11.70;;;7.65;;
49590;SDS011;35496;-21.974;-46.800;2023-04-03T08:27:27;11.82;;;7.72;;
49590;SDS011;35496;-21.974;-46.800;2023-04-03T08:29:54;13.52;;;7.57;;
49590;SDS011;35496;-21.974;-46.800;2023-04-03T08:32:20;10.38;;;7.85;;
49590;SDS011;35496;-21.974;-46.800;2023-04-03T08:34:47;11.40;;;8.68;;
49590;SDS011;35496;-21.974;-46.800;2023-04-03T08:37:13;16.42;;;7.57;;
49590;SDS011;35496;-21.974;-46.800;2023-04-03T08:39:41;16.50;;;7.95;;
49590;SDS011;35496;-21.974;-46.800;2023-04-03T08:42:14;16.90;;;9.20;;
49590;SDS011;35496;-21.974;-46.800;2023-04-03T08:45:15;30.83;;;13.50;;
49590;SDS011;35496;-21.974;-46.800;2023-04-03T08:47:47;17.73;;;11.25;;
49590;SDS011;35496;-21.974;-46.800;2023-04-03T08:50:19;19.20;;;11.60;;
49590;SDS011;35496;-21.974;-46.800;2023-04-03T08:52:47;15.27;;;10.05;;
49590;SDS011;35496;-21.974;-46.800;2023-04-03T08:57:41;18.17;;;10.43;;
49590;SDS011;35496;-21.974;-46.800;2023-04-03T09:00:17;12.82;;;7.75;;
49590;SDS011;35496;-21.974;-46.800;2023-04-03T09:02:50;12.52;;;8.02;;
49590;SDS011;35496;-21.974;-46.800;2023-04-03T09:05:39;26.33;;;7.88;;
49590;SDS011;35496;-21.974;-46.800;2023-04-03T09:08:26;10.82;;;6.00;;
49590;SDS011;35496;-21.974;-46.800;2023-04-03T09:10:58;16.77;;;10.00;;
49590;SDS011;35496;-21.974;-46.800;2023-04-03T09:14:13;12.88;;;9.77;;
49590;SDS011;35496;-21.974;-46.800;2023-04-03T09:16:16;23.20;;;12.30;;
49590;SDS011;35496;-21.974;-46.800;2023-04-03T09:18:46;36.65;;;27.45;;
49590;SDS011;35496;-21.974;-46.800;2023-04-03T09:21:20;31.13;;;27.88;;
49590;SDS011;35496;-21.974;-46.800;2023-04-03T09:23:53;37.15;;;27.20;;
49590;SDS011;35496;-21.974;-46.800;2023-04-03T09:28:51;11.68;;;6.85;;
49590;SDS011;35496;-21.974;-46.800;2023-04-03T09:31:29;8.00;;;5.32;;
49590;SDS011;35496;-21.974;-46.800;2023-04-03T09:33:57;5.85;;;5.22;;
49590;SDS011;35496;-21.974;-46.800;2023-04-03T09:36:38;9.77;;;6.50;;
49590;SDS011;35496;-21.974;-46.800;2023-04-03T09:39:05;10.10;;;6.20;;
49590;SDS011;35496;-21.974;-46.800;2023-04-03T09:41:33;9.98;;;5.75;;
49590;SDS011;35496;-21.974;-46.800;2023-04-03T09:43:59;8.05;;;6.65;;
49590;SDS011;35496;-21.974;-46.800;2023-04-03T09:46:29;10.23;;;6.45;;
49590;SDS011;35496;-21.974;-46.800;2023-04-03T09:48:57;6.72;;;5.72;;
49590;SDS011;35496;-21.974;-46.800;2023-04-03T09:51:27;15.65;;;5.95;;
49590;SDS011;35496;-21.974;-46.800;2023-04-03T09:53:54;11.15;;;6.68;;
49590;SDS011;35496;-21.974;-46.800;2023-04-03T09:56:22;8.57;;;5.35;;
49590;SDS011;35496;-21.974;-46.800;2023-04-03T10:06:36;9.80;;;5.72;;
49590;SDS011;35496;-21.974;-46.800;2023-04-03T10:09:13;6.93;;;5.95;;
49590;SDS011;35496;-21.974;-46.800;2023-04-03T10:12:26;11.18;;;6.10;;
49590;SDS011;35496;-21.974;-46.800;2023-04-03T10:14:27;9.65;;;5.85;;
49590;SDS011;35496;-21.974;-46.800;2023-04-03T10:24:20;5.50;;;4.78;;
49590;SDS011;35496;-21.974;-46.800;2023-04-03T10:34:37;9.77;;;5.55;;
49590;SDS011;35496;-21.974;-46.800;2023-04-03T10:37:13;6.53;;;4.25;;
49590;SDS011;35496;-21.974;-46.800;2023-04-03T10:47:51;7.47;;;3.92;;
49590;SDS011;35496;-21.974;-46.800;2023-04-03T10:58:43;15.55;;;5.40;;
49590;SDS011;35496;-21.974;-46.800;2023-04-03T11:01:11;12.90;;;6.72;;
49590;SDS011;35496;-21.974;-46.800;2023-04-03T11:03:40;10.48;;;5.50;;
49590;SDS011;35496;-21.974;-46.800;2023-04-03T11:06:09;5.85;;;3.80;;
49590;SDS011;35496;-21.974;-46.800;2023-04-03T11:11:33;9.68;;;3.78;;
49590;SDS011;35496;-21.974;-46.800;2023-04-03T11:16:31;6.50;;;4.43;;
49590;SDS011;35496;-21.974;-46.800;2023-04-03T11:18:59;4.97;;;3.35;;
49590;SDS011;35496;-21.974;-46.800;2023-04-03T11:24:32;8.57;;;3.83;;
49590;SDS011;35496;-21.974;-46.800;2023-04-03T11:26:59;5.75;;;4.20;;
49590;SDS011;35496;-21.974;-46.800;2023-04-03T11:29:28;6.55;;;3.65;;
49590;SDS011;35496;-21.974;-46.800;2023-04-03T11:34:40;4.50;;;3.67;;
49590;SDS011;35496;-21.974;-46.800;2023-04-03T11:37:13;7.72;;;5.07;;
49590;SDS011;35496;-21.974;-46.800;2023-04-03T11:39:40;3.65;;;3.35;;
49590;SDS011;35496;-21.974;-46.800;2023-04-03T11:42:22;6.93;;;3.72;;
49590;SDS011;35496;-21.974;-46.800;2023-04-03T11:44:51;4.13;;;3.28;;
49590;SDS011;35496;-21.974;-46.800;2023-04-03T11:50:03;5.30;;;2.70;;
49590;SDS011;35496;-21.974;-46.800;2023-04-03T12:13:37;7.78;;;2.97;;
49590;SDS011;35496;-21.974;-46.800;2023-04-03T12:16:09;4.57;;;3.00;;
49590;SDS011;35496;-21.974;-46.800;2023-04-03T12:21:11;15.18;;;3.45;;
49590;SDS011;35496;-21.974;-46.800;2023-04-03T12:23:58;9.80;;;4.63;;
49590;SDS011;35496;-21.974;-46.800;2023-04-03T12:26:26;5.43;;;3.10;;
49590;SDS011;35496;-21.974;-46.800;2023-04-03T12:28:54;7.47;;;3.40;;
49590;SDS011;35496;-21.974;-46.800;2023-04-03T12:31:22;3.70;;;2.47;;
49590;SDS011;35496;-21.974;-46.800;2023-04-03T12:36:18;2.72;;;1.98;;
49590;SDS011;35496;-21.974;-46.800;2023-04-03T12:38:58;3.25;;;2.95;;
49590;SDS011;35496;-21.974;-46.800;2023-04-03T12:41:32;4.65;;;2.42;;
49590;SDS011;35496;-21.974;-46.800;2023-04-03T12:46:45;3.53;;;2.47;;
49590;SDS011;35496;-21.974;-46.800;2023-04-03T12:49:53;3.88;;;2.55;;
49590;SDS011;35496;-21.974;-46.800;2023-04-03T12:52:02;2.67;;;2.45;;
49590;SDS011;35496;-21.974;-46.800;2023-04-03T12:54:38;4.22;;;2.58;;
49590;SDS011;35496;-21.974;-46.800;2023-04-03T12:59:43;2.50;;;2.30;;
49590;SDS011;35496;-21.974;-46.800;2023-04-03T13:04:43;3.35;;;2.40;;
49590;SDS011;35496;-21.974;-46.800;2023-04-03T13:07:23;4.22;;;1.95;;
49590;SDS011;35496;-21.974;-46.800;2023-04-03T13:10:01;3.50;;;2.20;;
49590;SDS011;35496;-21.974;-46.800;2023-04-03T13:12:28;3.33;;;2.55;;
49590;SDS011;35496;-21.974;-46.800;2023-04-03T13:14:55;3.10;;;2.60;;
49590;SDS011;35496;-21.974;-46.800;2023-04-03T13:17:22;1.75;;;1.65;;
49590;SDS011;35496;-21.974;-46.800;2023-04-03T13:19:48;2.70;;;2.50;;
49590;SDS011;35496;-21.974;-46.800;2023-04-03T13:24:40;6.03;;;2.10;;
49590;SDS011;35496;-21.974;-46.800;2023-04-03T13:27:06;5.53;;;2.15;;
49590;SDS011;35496;-21.974;-46.800;2023-04-03T13:29:33;3.13;;;2.40;;
49590;SDS011;35496;-21.974;-46.800;2023-04-03T13:32:00;2.05;;;1.88;;
49590;SDS011;35496;-21.974;-46.800;2023-04-03T13:34:28;2.53;;;2.33;;
49590;SDS011;35496;-21.974;-46.800;2023-04-03T13:36:59;3.78;;;2.75;;
49590;SDS011;35496;-21.974;-46.800;2023-04-03T13:39:36;3.80;;;3.22;;
49590;SDS011;35496;-21.974;-46.800;2023-04-03T13:44:41;2.53;;;2.33;;
49590;SDS011;35496;-21.974;-46.800;2023-04-03T13:49:37;3.67;;;1.88;;
49590;SDS011;35496;-21.974;-46.800;2023-04-03T13:52:26;2.58;;;1.95;;
49590;SDS011;35496;-21.974;-46.800;2023-04-03T13:54:58;5.72;;;2.58;;
49590;SDS011;35496;-21.974;-46.800;2023-04-03T13:57:25;3.17;;;2.05;;
49590;SDS011;35496;-21.974;-46.800;2023-04-03T13:59:51;2.90;;;1.98;;
49590;SDS011;35496;-21.974;-46.800;2023-04-03T14:02:31;2.28;;;2.15;;
49590;SDS011;35496;-21.974;-46.800;2023-04-03T14:04:58;3.97;;;2.22;;
49590;SDS011;35496;-21.974;-46.800;2023-04-03T14:07:27;6.05;;;2.28;;
49590;SDS011;35496;-21.974;-46.800;2023-04-03T14:09:53;4.25;;;2.45;;
49590;SDS011;35496;-21.974;-46.800;2023-04-03T14:14:52;3.92;;;2.53;;
49590;SDS011;35496;-21.974;-46.800;2023-04-03T14:17:20;2.25;;;2.05;;
49590;SDS011;35496;-21.974;-46.800;2023-04-03T14:19:47;3.58;;;2.42;;
49590;SDS011;35496;-21.974;-46.800;2023-04-03T14:22:23;2.88;;;1.98;;
49590;SDS011;35496;-21.974;-46.800;2023-04-03T14:24:50;2.67;;;2.47;;
49590;SDS011;35496;-21.974;-46.800;2023-04-03T14:27:24;9.50;;;2.63;;
49590;SDS011;35496;-21.974;-46.800;2023-04-03T14:29:51;2.53;;;2.28;;
49590;SDS011;35496;-21.974;-46.800;2023-04-03T14:32:18;3.65;;;2.40;;
49590;SDS011;35496;-21.974;-46.800;2023-04-03T14:34:44;3.28;;;2.63;;
49590;SDS011;35496;-21.974;-46.800;2023-04-03T14:37:12;3.20;;;2.38;;
49590;SDS011;35496;-21.974;-46.800;2023-04-03T14:39:39;4.05;;;2.95;;
49590;SDS011;35496;-21.974;-46.800;2023-04-03T14:42:05;3.25;;;2.95;;
49590;SDS011;35496;-21.974;-46.800;2023-04-03T14:44:32;4.10;;;2.42;;
49590;SDS011;35496;-21.974;-46.800;2023-04-03T14:46:58;2.40;;;2.20;;
49590;SDS011;35496;-21.974;-46.800;2023-04-03T14:49:25;2.63;;;2.25;;
49590;SDS011;35496;-21.974;-46.800;2023-04-03T14:51:53;4.10;;;2.40;;
49590;SDS011;35496;-21.974;-46.800;2023-04-03T14:54:20;3.83;;;2.38;;
49590;SDS011;35496;-21.974;-46.800;2023-04-03T14:56:51;4.18;;;2.00;;
49590;SDS011;35496;-21.974;-46.800;2023-04-03T14:59:17;9.32;;;2.25;;
49590;SDS011;35496;-21.974;-46.800;2023-04-03T15:01:45;4.30;;;2.03;;
49590;SDS011;35496;-21.974;-46.800;2023-04-03T15:04:18;3.05;;;2.78;;
49590;SDS011;35496;-21.974;-46.800;2023-04-03T15:06:45;4.07;;;2.92;;
49590;SDS011;35496;-21.974;-46.800;2023-04-03T15:09:15;4.15;;;2.55;;
49590;SDS011;35496;-21.974;-46.800;2023-04-03T15:11:44;2.22;;;2.00;;
49590;SDS011;35496;-21.974;-46.800;2023-04-03T15:14:10;3.88;;;2.55;;
49590;SDS011;35496;-21.974;-46.800;2023-04-03T15:16:36;4.57;;;2.63;;
49590;SDS011;35496;-21.974;-46.800;2023-04-03T15:19:02;2.33;;;2.22;;
49590;SDS011;35496;-21.974;-46.800;2023-04-03T15:21:28;2.63;;;2.42;;
49590;SDS011;35496;-21.974;-46.800;2023-04-03T15:23:54;2.85;;;2.60;;
49590;SDS011;35496;-21.974;-46.800;2023-04-03T15:26:20;4.05;;;1.77;;
49590;SDS011;35496;-21.974;-46.800;2023-04-03T15:28:46;2.63;;;2.42;;
49590;SDS011;35496;-21.974;-46.800;2023-04-03T15:31:12;2.30;;;2.20;;
49590;SDS011;35496;-21.974;-46.800;2023-04-03T15:33:38;4.32;;;2.67;;
49590;SDS011;35496;-21.974;-46.800;2023-04-03T15:36:04;2.58;;;2.33;;
49590;SDS011;35496;-21.974;-46.800;2023-04-03T15:38:31;2.80;;;2.58;;
49590;SDS011;35496;-21.974;-46.800;2023-04-03T15:40:57;1.77;;;1.63;;
49590;SDS011;35496;-21.974;-46.800;2023-04-03T15:43:23;3.05;;;2.15;;
49590;SDS011;35496;-21.974;-46.800;2023-04-03T15:45:49;1.90;;;1.80;;
49590;SDS011;35496;-21.974;-46.800;2023-04-03T15:48:16;2.60;;;2.35;;
49590;SDS011;35496;-21.974;-46.800;2023-04-03T15:50:42;3.00;;;2.70;;
49590;SDS011;35496;-21.974;-46.800;2023-04-03T15:53:08;2.83;;;2.63;;
49590;SDS011;35496;-21.974;-46.800;2023-04-03T15:55:36;2.90;;;2.70;;
49590;SDS011;35496;-21.974;-46.800;2023-04-03T15:58:02;2.10;;;1.90;;